Time;durP1;ratioP1;P1;durP2;ratioP2;P2;SDS_P1;SDS_P2;PMS_P1;PMS_P2;Temp;Humidity;BMP_temperature;BMP_pressure;BME280_temperature;BME280_humidity;BME280_pressure;Samples;Min_cycle;Max_cycle;Signal;HPM_P1;HPM_P2
2022/03/19 00:00:59;;;;;;;20.50;11.73;;;1.90;1.00;;;;;;5081888;28;20446;-64
2022/03/19 00:03:25;;;;;;;18.77;12.30;;;1.90;1.00;;;;;;5056348;28;20424;-67
2022/03/19 00:05:51;;;;;;;18.73;12.90;;;1.80;1.00;;;;;;5085422;28;20157;-70
2022/03/19 00:08:17;;;;;;;18.60;11.50;;;1.80;1.00;;;;;;5097457;28;20407;-68
2022/03/19 00:10:43;;;;;;;29.53;13.27;;;1.80;1.00;;;;;;5092570;28;20538;-70
2022/03/19 00:13:10;;;;;;;24.63;12.80;;;1.80;1.00;;;;;;5094857;28;20725;-70
2022/03/19 00:15:37;;;;;;;19.60;11.23;;;1.80;1.00;;;;;;5086629;28;20455;-65
2022/03/19 00:18:06;;;;;;;16.10;11.27;;;1.80;1.00;;;;;;5074554;28;20510;-70
2022/03/19 00:20:35;;;;;;;18.40;10.60;;;1.80;1.00;;;;;;5083633;28;20746;-62
2022/03/19 00:23:01;;;;;;;36.37;11.50;;;1.80;1.00;;;;;;5093927;28;20996;-67
2022/03/19 00:25:26;;;;;;;15.20;11.13;;;1.70;1.00;;;;;;5093742;28;20507;-63
2022/03/19 00:27:52;;;;;;;26.43;11.40;;;1.70;1.00;;;;;;5074628;28;20597;-64
2022/03/19 00:30:18;;;;;;;23.17;10.00;;;1.70;1.00;;;;;;5085280;28;20178;-63
2022/03/19 00:32:44;;;;;;;18.07;13.33;;;1.60;1.00;;;;;;5075136;28;20194;-65
2022/03/19 00:35:10;;;;;;;15.73;11.63;;;1.60;1.00;;;;;;5056127;28;20834;-65
2022/03/19 00:37:50;;;;;;;22.20;12.13;;;1.60;1.00;;;;;;5074049;28;20192;-69
2022/03/19 00:40:17;;;;;;;16.23;9.30;;;1.70;1.00;;;;;;5074635;28;20424;-63
2022/03/19 00:42:44;;;;;;;15.90;9.60;;;1.70;1.00;;;;;;5075929;28;20438;-64
2022/03/19 00:45:10;;;;;;;19.87;10.30;;;1.60;1.00;;;;;;5073920;28;20417;-64
2022/03/19 00:47:36;;;;;;;12.63;9.13;;;1.60;1.00;;;;;;5073905;28;20436;-63
2022/03/19 00:50:03;;;;;;;13.17;10.57;;;1.60;1.00;;;;;;5091173;28;20423;-63
2022/03/19 00:52:29;;;;;;;16.20;9.93;;;1.50;1.00;;;;;;5093853;28;20808;-63
2022/03/19 00:54:54;;;;;;;23.47;11.17;;;1.50;1.00;;;;;;5076639;28;20447;-68
2022/03/19 00:57:20;;;;;;;21.60;10.43;;;1.50;1.00;;;;;;5055241;28;20167;-70
2022/03/19 00:59:47;;;;;;;17.47;9.70;;;1.40;1.00;;;;;;5084351;28;20185;-68
2022/03/19 01:02:12;;;;;;;13.93;8.97;;;1.40;1.00;;;;;;5094044;28;20419;-64
2022/03/19 01:04:38;;;;;;;15.83;9.17;;;1.40;1.00;;;;;;5075920;28;20181;-69
2022/03/19 01:07:04;;;;;;;12.63;9.97;;;1.50;1.00;;;;;;5074667;28;20705;-63
2022/03/19 01:09:29;;;;;;;20.83;9.00;;;1.50;1.00;;;;;;5092601;28;20626;-66
2022/03/19 01:11:55;;;;;;;16.27;8.23;;;1.50;1.00;;;;;;5082797;28;20222;-71
2022/03/19 01:14:21;;;;;;;13.50;9.23;;;1.50;1.00;;;;;;5073639;28;20273;-69
2022/03/19 01:16:46;;;;;;;19.03;8.90;;;1.50;1.00;;;;;;5064017;28;20695;-67
2022/03/19 01:19:12;;;;;;;16.90;8.47;;;1.50;1.00;;;;;;5092837;28;20169;-64
2022/03/19 01:21:39;;;;;;;16.10;8.10;;;1.50;1.00;;;;;;5086052;28;20190;-70
2022/03/19 01:24:05;;;;;;;7.63;6.93;;;1.50;1.00;;;;;;5073533;28;20166;-63
2022/03/19 01:26:31;;;;;;;16.00;7.30;;;1.50;1.00;;;;;;5060455;28;20427;-65
2022/03/19 01:28:57;;;;;;;13.43;7.20;;;1.60;1.00;;;;;;5091036;28;20422;-70
2022/03/19 01:31:26;;;;;;;8.57;7.30;;;1.60;1.00;;;;;;5089809;28;20435;-64
2022/03/19 01:33:52;;;;;;;8.93;5.63;;;1.60;1.00;;;;;;5093207;28;20492;-70
2022/03/19 01:36:18;;;;;;;8.07;5.73;;;1.60;1.00;;;;;;5092359;28;20451;-70
2022/03/19 01:38:47;;;;;;;7.17;6.20;;;1.60;1.00;;;;;;5092627;28;20903;-70
2022/03/19 01:41:13;;;;;;;5.20;4.60;;;1.70;1.00;;;;;;5055346;28;20221;-64
2022/03/19 01:43:39;;;;;;;10.73;4.40;;;1.70;1.00;;;;;;5073038;28;20489;-64
2022/03/19 01:46:07;;;;;;;9.27;5.60;;;1.70;1.00;;;;;;5090616;28;20477;-63
2022/03/19 01:48:33;;;;;;;7.63;5.73;;;1.60;1.00;;;;;;5092646;28;20400;-64
2022/03/19 01:50:59;;;;;;;11.13;5.00;;;1.60;1.00;;;;;;5057820;28;20425;-64
2022/03/19 01:53:24;;;;;;;11.33;6.60;;;1.60;1.00;;;;;;5072719;28;20264;-64
2022/03/19 01:55:53;;;;;;;6.33;4.90;;;1.60;1.00;;;;;;5088007;28;20549;-63
2022/03/19 01:58:19;;;;;;;7.87;6.83;;;1.60;1.00;;;;;;5095911;28;20231;-69
2022/03/19 02:00:44;;;;;;;8.47;5.50;;;1.50;1.00;;;;;;5091694;28;20896;-70
2022/03/19 02:03:11;;;;;;;8.33;5.87;;;1.50;1.00;;;;;;5093389;28;20203;-70
2022/03/19 02:05:37;;;;;;;7.47;4.83;;;1.50;1.00;;;;;;5079906;28;20458;-70
2022/03/19 02:08:03;;;;;;;12.10;6.27;;;1.50;1.00;;;;;;5072782;28;20428;-65
2022/03/19 02:10:29;;;;;;;5.83;5.13;;;1.50;1.00;;;;;;5081969;28;20664;-67
2022/03/19 02:12:56;;;;;;;11.40;5.43;;;1.50;1.00;;;;;;5093314;28;20189;-70
2022/03/19 02:15:22;;;;;;;14.10;5.47;;;1.60;1.00;;;;;;5083741;28;20464;-67
2022/03/19 02:17:48;;;;;;;5.23;4.17;;;1.60;1.00;;;;;;5055931;28;20419;-70
2022/03/19 02:20:14;;;;;;;9.03;4.03;;;1.60;1.00;;;;;;5079301;28;20420;-70
2022/03/19 02:22:40;;;;;;;11.07;5.50;;;1.60;1.00;;;;;;5096692;28;20212;-63
2022/03/19 02:27:51;;;;;;;8.00;4.60;;;1.50;1.00;;;;;;5076310;28;20450;-64
2022/03/19 02:30:17;;;;;;;6.23;4.93;;;1.50;1.00;;;;;;5064180;28;21094;-64
2022/03/19 02:32:47;;;;;;;5.23;4.70;;;1.50;1.00;;;;;;5096813;28;20431;-71
2022/03/19 02:35:13;;;;;;;6.37;5.83;;;1.40;1.00;;;;;;5090947;28;20504;-71
2022/03/19 02:37:41;;;;;;;11.27;5.70;;;1.40;1.00;;;;;;5075735;28;20408;-70
2022/03/19 02:40:12;;;;;;;7.50;5.50;;;1.50;1.00;;;;;;5082835;28;20193;-64
2022/03/19 02:42:38;;;;;;;5.13;4.20;;;1.50;1.00;;;;;;5096923;28;20779;-71
2022/03/19 02:45:07;;;;;;;6.60;4.67;;;1.50;1.00;;;;;;5077176;28;20421;-64
2022/03/19 02:47:33;;;;;;;6.43;5.93;;;1.40;1.00;;;;;;5096273;28;20166;-64
2022/03/19 02:50:00;;;;;;;5.00;4.60;;;1.40;1.00;;;;;;5089501;28;20777;-62
2022/03/19 02:52:26;;;;;;;6.13;5.03;;;1.30;1.00;;;;;;5075945;28;20476;-70
2022/03/19 02:54:52;;;;;;;8.03;4.53;;;1.30;1.00;;;;;;5064709;28;20925;-68
2022/03/19 02:57:18;;;;;;;6.97;4.50;;;1.30;1.00;;;;;;5096526;28;20189;-64
2022/03/19 02:59:43;;;;;;;5.70;5.20;;;1.30;1.00;;;;;;5094754;28;20443;-62
2022/03/19 03:02:09;;;;;;;11.40;5.73;;;1.30;1.00;;;;;;5095712;28;20181;-65
2022/03/19 03:04:34;;;;;;;5.67;4.33;;;1.20;1.00;;;;;;5091244;28;20201;-62
2022/03/19 03:07:02;;;;;;;8.07;5.83;;;1.20;1.00;;;;;;5076121;28;20181;-66
2022/03/19 03:09:29;;;;;;;15.27;6.40;;;1.20;1.00;;;;;;5077863;28;20511;-64
2022/03/19 03:11:58;;;;;;;8.38;4.75;;;1.20;1.00;;;;;;5095265;28;20522;-71
2022/03/19 03:14:23;;;;;;;5.40;4.90;;;1.20;1.00;;;;;;5093759;28;20197;-70
2022/03/19 03:16:51;;;;;;;5.10;4.07;;;1.20;1.00;;;;;;5075899;28;20476;-70
2022/03/19 03:19:18;;;;;;;11.57;5.20;;;1.20;1.00;;;;;;5074432;28;20202;-64
2022/03/19 03:21:45;;;;;;;9.10;4.90;;;1.10;1.00;;;;;;5095800;28;20733;-63
2022/03/19 03:24:12;;;;;;;5.22;4.38;;;1.20;1.00;;;;;;5095917;28;20931;-70
2022/03/19 03:26:38;;;;;;;6.63;4.10;;;1.10;1.00;;;;;;5076029;28;20193;-68
2022/03/19 03:29:05;;;;;;;8.00;5.00;;;1.10;1.00;;;;;;5073917;28;20809;-64
2022/03/19 03:31:31;;;;;;;5.10;4.20;;;1.10;1.00;;;;;;5092331;28;20484;-64
2022/03/19 03:33:57;;;;;;;6.37;5.80;;;1.10;1.00;;;;;;5077016;28;20452;-63
2022/03/19 03:36:23;;;;;;;4.30;4.00;;;0.90;1.00;;;;;;5078458;28;20460;-69
2022/03/19 03:38:49;;;;;;;6.90;4.23;;;0.90;1.00;;;;;;5079969;28;20166;-70
2022/03/19 03:41:15;;;;;;;9.68;5.18;;;0.90;1.00;;;;;;5095512;28;20423;-63
2022/03/19 03:43:41;;;;;;;8.27;5.60;;;0.90;1.00;;;;;;5090589;28;20170;-64
2022/03/19 03:46:06;;;;;;;4.57;4.30;;;0.90;1.00;;;;;;5075249;28;20193;-70
2022/03/19 03:48:36;;;;;;;6.80;5.17;;;0.90;1.00;;;;;;5056560;28;20415;-69
2022/03/19 03:51:03;;;;;;;4.90;4.10;;;0.90;1.00;;;;;;5079115;28;20642;-64
2022/03/19 03:53:29;;;;;;;9.10;4.13;;;0.90;1.00;;;;;;5091060;28;20430;-63
2022/03/19 03:55:55;;;;;;;5.13;4.30;;;0.90;1.00;;;;;;5074456;28;20284;-64
2022/03/19 03:58:23;;;;;;;6.88;4.22;;;0.80;1.00;;;;;;5078327;28;20750;-66
2022/03/19 04:00:52;;;;;;;4.70;3.80;;;0.80;1.00;;;;;;5094405;28;20173;-70
2022/03/19 04:03:17;;;;;;;7.07;4.68;;;0.70;1.00;;;;;;5092147;28;20417;-63
2022/03/19 04:05:43;;;;;;;4.57;4.23;;;0.80;1.00;;;;;;5056309;28;20231;-70
2022/03/19 04:08:09;;;;;;;5.83;5.33;;;0.80;1.00;;;;;;5079430;28;20231;-69
2022/03/19 04:10:34;;;;;;;5.10;4.63;;;0.80;1.00;;;;;;5084469;28;20635;-69
2022/03/19 04:13:00;;;;;;;7.10;5.13;;;0.70;1.00;;;;;;5076606;28;20197;-64
2022/03/19 04:15:26;;;;;;;5.22;4.60;;;0.60;1.00;;;;;;5094872;28;20201;-64
2022/03/19 04:17:52;;;;;;;9.27;4.30;;;0.60;1.00;;;;;;5093132;28;20245;-70
2022/03/19 04:20:18;;;;;;;5.00;4.53;;;0.60;1.00;;;;;;5073540;28;20646;-71
2022/03/19 04:22:46;;;;;;;5.32;4.93;;;0.60;1.00;;;;;;5074364;28;20182;-64
2022/03/19 04:25:17;;;;;;;4.03;3.70;;;0.50;1.00;;;;;;5073593;28;20170;-70
2022/03/19 04:27:45;;;;;;;7.38;4.88;;;0.60;1.00;;;;;;5074465;28;20166;-70
2022/03/19 04:30:15;;;;;;;10.43;3.75;;;0.50;1.00;;;;;;5092906;28;20303;-67
2022/03/19 04:32:48;;;;;;;8.15;5.80;;;0.60;1.00;;;;;;5093653;28;20661;-71
2022/03/19 04:38:02;;;;;;;5.50;3.75;;;0.60;1.00;;;;;;5074639;28;20181;-69
2022/03/19 04:40:29;;;;;;;7.45;5.07;;;0.60;1.00;;;;;;5093498;28;20527;-64
2022/03/19 04:42:55;;;;;;;4.20;3.58;;;0.60;1.00;;;;;;5093647;28;20231;-66
2022/03/19 04:45:21;;;;;;;4.20;3.80;;;0.50;1.00;;;;;;5073808;28;20198;-63
2022/03/19 04:47:46;;;;;;;3.87;3.57;;;0.50;1.00;;;;;;5074256;28;20240;-66
2022/03/19 04:50:12;;;;;;;4.83;4.33;;;0.50;1.00;;;;;;5090148;28;20418;-70
2022/03/19 04:52:39;;;;;;;9.53;4.10;;;0.60;1.00;;;;;;5093658;28;20201;-63
2022/03/19 04:55:06;;;;;;;4.35;3.85;;;0.50;1.00;;;;;;5077617;28;20209;-70
2022/03/19 04:57:32;;;;;;;5.63;4.80;;;0.50;1.00;;;;;;5073887;28;20171;-64
2022/03/19 04:59:59;;;;;;;4.90;4.37;;;0.50;1.00;;;;;;5065582;28;20166;-63
2022/03/19 05:02:25;;;;;;;14.60;3.75;;;0.50;1.00;;;;;;5075240;28;20197;-64
2022/03/19 05:04:51;;;;;;;3.70;3.40;;;0.50;1.00;;;;;;5075843;28;20181;-69
2022/03/19 05:07:19;;;;;;;8.50;3.83;;;0.60;1.00;;;;;;5093379;28;20225;-64
2022/03/19 05:12:30;;;;;;;9.52;4.20;;;0.60;1.00;;;;;;5080491;28;20283;-68
2022/03/19 05:14:56;;;;;;;17.77;4.05;;;0.50;1.00;;;;;;5073766;28;20197;-62
2022/03/19 05:17:21;;;;;;;5.57;5.17;;;0.50;1.00;;;;;;5084378;28;20538;-63
2022/03/19 05:19:47;;;;;;;8.53;4.50;;;0.50;1.00;;;;;;5092324;28;20165;-67
2022/03/19 05:22:13;;;;;;;5.80;4.00;;;0.50;1.00;;;;;;5083695;28;20272;-67
2022/03/19 05:24:39;;;;;;;4.20;3.80;;;0.50;1.00;;;;;;5073446;28;20208;-68
2022/03/19 05:27:04;;;;;;;5.25;4.40;;;0.40;1.00;;;;;;5080688;28;20165;-67
2022/03/19 05:29:33;;;;;;;4.50;3.97;;;0.40;1.00;;;;;;5092325;28;20306;-68
2022/03/19 05:31:59;;;;;;;6.00;4.28;;;0.40;1.00;;;;;;5086789;28;20272;-68
2022/03/19 05:34:30;;;;;;;7.10;4.10;;;0.40;1.00;;;;;;5073531;28;20202;-68
2022/03/19 05:37:05;;;;;;;3.65;3.35;;;0.30;1.00;;;;;;5074124;28;20166;-68
2022/03/19 05:39:33;;;;;;;4.68;4.13;;;0.40;1.00;;;;;;5072073;28;20166;-64
2022/03/19 05:41:59;;;;;;;3.97;3.17;;;0.40;1.00;;;;;;5080012;28;20181;-62
2022/03/19 05:44:24;;;;;;;6.50;3.60;;;0.40;1.00;;;;;;5093064;28;20399;-67
2022/03/19 05:46:50;;;;;;;7.27;3.93;;;0.30;1.00;;;;;;5087449;28;20432;-62
2022/03/19 05:49:16;;;;;;;9.03;4.07;;;0.30;1.00;;;;;;5072380;28;20173;-63
2022/03/19 05:51:42;;;;;;;5.73;4.60;;;0.40;1.00;;;;;;5076386;28;20266;-68
2022/03/19 05:54:09;;;;;;;4.80;4.40;;;0.30;1.00;;;;;;5093350;28;20746;-68
2022/03/19 05:56:36;;;;;;;5.60;4.70;;;0.20;1.00;;;;;;5093378;28;20285;-68
2022/03/19 05:59:02;;;;;;;3.90;3.60;;;0.10;1.00;;;;;;5075856;28;20197;-63
2022/03/19 06:01:28;;;;;;;5.40;4.18;;;0.10;1.00;;;;;;5098066;28;20200;-69
2022/03/19 06:03:57;;;;;;;6.77;4.73;;;0.20;1.00;;;;;;5097167;28;20165;-62
2022/03/19 06:06:26;;;;;;;9.05;5.80;;;0.30;1.00;;;;;;5096307;28;20638;-63
2022/03/19 06:08:52;;;;;;;6.27;5.77;;;0.30;1.00;;;;;;5096257;28;20270;-63
2022/03/19 06:11:18;;;;;;;6.97;4.30;;;0.30;1.00;;;;;;5095475;28;20502;-62
2022/03/19 06:13:44;;;;;;;5.70;5.20;;;0.30;1.00;;;;;;5097193;28;20495;-67
2022/03/19 06:16:09;;;;;;;5.43;4.53;;;0.40;1.00;;;;;;5095761;28;20208;-69
2022/03/19 06:18:35;;;;;;;9.50;5.10;;;0.50;1.00;;;;;;5075172;28;20495;-63
2022/03/19 06:21:01;;;;;;;6.87;4.53;;;0.50;1.00;;;;;;5076613;28;20174;-64
2022/03/19 06:23:27;;;;;;;7.30;5.57;;;0.60;1.00;;;;;;5095578;28;20567;-68
2022/03/19 06:25:53;;;;;;;6.70;4.90;;;0.60;1.00;;;;;;5095905;28;20177;-64
2022/03/19 06:28:19;;;;;;;7.13;4.00;;;0.70;1.00;;;;;;5094172;28;20173;-63
2022/03/19 06:30:45;;;;;;;5.28;4.80;;;0.70;1.00;;;;;;5095990;28;20411;-63
2022/03/19 06:33:13;;;;;;;6.70;6.00;;;0.80;1.00;;;;;;5095238;28;20674;-65
2022/03/19 06:38:26;;;;;;;16.60;6.13;;;0.80;1.00;;;;;;5075987;28;20316;-62
2022/03/19 06:40:52;;;;;;;6.40;5.50;;;0.80;1.00;;;;;;5075582;28;20404;-63
2022/03/19 06:43:18;;;;;;;7.43;4.93;;;0.80;1.00;;;;;;5095265;28;20438;-69
2022/03/19 06:45:44;;;;;;;16.00;6.43;;;0.90;1.00;;;;;;5087944;28;20197;-62
2022/03/19 06:48:09;;;;;;;8.63;5.90;;;1.00;1.00;;;;;;5076155;28;20177;-63
2022/03/19 06:50:35;;;;;;;10.27;6.00;;;1.10;1.00;;;;;;5075370;28;20166;-62
2022/03/19 06:53:05;;;;;;;6.07;5.37;;;1.10;1.00;;;;;;5075308;28;20225;-64
2022/03/19 06:55:32;;;;;;;7.50;6.17;;;1.30;1.00;;;;;;5057497;28;20452;-69
2022/03/19 06:57:58;;;;;;;16.92;5.85;;;1.30;1.00;;;;;;5075866;28;20433;-67
2022/03/19 07:00:24;;;;;;;9.07;6.60;;;1.50;1.00;;;;;;5075046;28;20239;-68
2022/03/19 07:02:52;;;;;;;8.90;5.70;;;1.60;1.00;;;;;;5076280;28;20412;-68
2022/03/19 07:05:22;;;;;;;8.17;7.40;;;1.70;1.00;;;;;;5075922;28;20400;-64
2022/03/19 07:07:48;;;;;;;14.10;7.17;;;1.80;1.00;;;;;;5075841;28;20491;-63
2022/03/19 07:10:15;;;;;;;6.73;6.10;;;1.90;1.00;;;;;;5074539;28;20476;-70
2022/03/19 07:12:44;;;;;;;10.90;5.73;;;2.10;1.00;;;;;;5075828;28;20281;-66
2022/03/19 07:15:14;;;;;;;10.23;5.70;;;2.20;5.30;;;;;;5076696;28;20543;-67
2022/03/19 07:17:41;;;;;;;7.97;5.67;;;2.40;26.60;;;;;;5075945;28;20400;-68
2022/03/19 07:20:07;;;;;;;6.07;5.37;;;2.50;39.20;;;;;;5079359;28;20408;-64
2022/03/19 07:22:57;;;;;;;8.67;5.50;;;2.60;75.60;;;;;;5095901;28;20515;-62
2022/03/19 07:25:25;;;;;;;14.17;5.00;;;2.80;99.90;;;;;;5089158;28;20420;-69
2022/03/19 07:27:52;;;;;;;6.17;5.57;;;3.00;99.90;;;;;;5075006;28;20462;-66
2022/03/19 07:30:19;;;;;;;6.23;5.33;;;3.10;99.90;;;;;;5079595;28;20503;-68
2022/03/19 07:32:45;;;;;;;11.67;5.67;;;3.20;99.90;;;;;;5094754;28;20451;-68
2022/03/19 07:35:14;;;;;;;6.10;5.27;;;3.40;99.90;;;;;;5092015;28;20451;-63
2022/03/19 07:37:44;;;;;;;8.67;4.90;;;3.50;99.90;;;;;;5095595;28;20437;-68
2022/03/19 07:40:12;;;;;;;10.03;4.77;;;3.70;99.90;;;;;;5093963;28;20408;-68
2022/03/19 07:42:38;;;;;;;10.80;5.03;;;3.90;99.90;;;;;;5095264;28;20424;-66
2022/03/19 07:45:05;;;;;;;14.23;5.10;;;4.00;99.90;;;;;;5089659;28;20503;-63
2022/03/19 07:47:32;;;;;;;19.70;5.40;;;4.10;99.90;;;;;;5075023;28;20428;-66
2022/03/19 07:49:58;;;;;;;6.27;4.40;;;4.30;99.90;;;;;;5077031;28;20419;-63
2022/03/19 07:52:24;;;;;;;17.53;4.77;;;4.40;99.90;;;;;;5095176;28;20447;-68
2022/03/19 07:54:54;;;;;;;5.67;3.93;;;4.50;99.90;;;;;;5074851;28;20237;-63
2022/03/19 07:57:22;;;;;;;7.10;4.93;;;4.60;99.90;;;;;;5075076;28;20773;-68
2022/03/19 07:59:48;;;;;;;7.20;4.00;;;4.80;99.90;;;;;;5074875;28;20416;-67
2022/03/19 08:02:13;;;;;;;6.63;3.40;;;4.90;99.90;;;;;;5077055;28;20435;-63
2022/03/19 08:04:39;;;;;;;11.00;3.43;;;5.00;99.90;;;;;;5094225;28;20765;-67
2022/03/19 08:07:06;;;;;;;3.00;2.80;;;5.10;99.90;;;;;;5074922;28;20186;-67
2022/03/19 08:09:31;;;;;;;9.27;4.27;;;5.20;99.90;;;;;;5083268;28;20407;-64
2022/03/19 08:11:58;;;;;;;15.27;3.40;;;5.30;99.90;;;;;;5094740;28;20444;-63
2022/03/19 08:14:24;;;;;;;9.43;3.50;;;5.40;99.90;;;;;;5094566;28;20534;-67
2022/03/19 08:16:50;;;;;;;5.17;3.40;;;5.60;99.90;;;;;;5074723;28;20496;-68
2022/03/19 08:19:15;;;;;;;8.07;3.37;;;5.70;99.90;;;;;;5073195;28;20173;-64
2022/03/19 08:21:43;;;;;;;6.50;3.10;;;5.80;99.90;;;;;;5092829;28;20221;-63
2022/03/19 08:24:10;;;;;;;5.40;3.17;;;5.90;99.90;;;;;;5093217;28;20867;-68
2022/03/19 08:26:36;;;;;;;9.13;3.60;;;6.10;99.90;;;;;;5091416;28;20466;-68
2022/03/19 08:29:02;;;;;;;8.80;3.90;;;6.20;99.90;;;;;;5093560;28;20959;-67
2022/03/19 08:31:28;;;;;;;9.13;4.00;;;6.30;99.90;;;;;;5093851;28;20533;-63
2022/03/19 08:33:55;;;;;;;7.00;3.33;;;6.50;99.90;;;;;;5094484;28;20958;-67
2022/03/19 08:36:21;;;;;;;6.00;3.43;;;6.60;99.90;;;;;;5076321;28;20505;-66
2022/03/19 08:41:31;;;;;;;12.10;6.97;;;6.70;99.90;;;;;;5074325;28;20458;-68
2022/03/19 08:43:57;;;;;;;4.67;3.10;;;6.90;99.90;;;;;;5073390;28;20408;-62
2022/03/19 08:46:24;;;;;;;3.67;2.77;;;6.90;99.90;;;;;;5073166;28;20173;-68
2022/03/19 08:48:50;;;;;;;11.90;3.90;;;7.00;99.90;;;;;;5072974;28;20410;-63
2022/03/19 08:54:00;;;;;;;5.90;3.70;;;7.30;99.90;;;;;;5074164;28;20562;-69
2022/03/19 08:56:25;;;;;;;6.03;2.80;;;7.30;99.90;;;;;;5073917;28;20547;-68
2022/03/19 08:58:51;;;;;;;4.03;3.73;;;7.40;99.90;;;;;;5072802;28;20181;-64
2022/03/19 09:01:17;;;;;;;8.63;3.27;;;7.50;91.60;;;;;;5073725;28;20194;-67
2022/03/19 09:03:43;;;;;;;5.77;2.97;;;7.50;75.70;;;;;;5073214;28;20661;-62
2022/03/19 09:06:14;;;;;;;8.93;4.03;;;7.50;51.30;;;;;;5073217;28;20416;-63
2022/03/19 09:08:40;;;;;;;3.17;2.93;;;7.60;57.60;;;;;;5072988;28;20411;-62
2022/03/19 09:11:06;;;;;;;6.97;3.00;;;7.70;30.70;;;;;;5073794;28;20478;-68
2022/03/19 09:13:32;;;;;;;7.40;3.37;;;7.70;30.80;;;;;;5073677;28;20458;-68
2022/03/19 09:15:57;;;;;;;6.33;3.70;;;7.70;13.50;;;;;;5073859;28;20255;-70
2022/03/19 09:18:24;;;;;;;13.10;3.07;;;8.00;17.80;;;;;;5073503;28;20210;-69
2022/03/19 09:20:49;;;;;;;6.50;3.20;;;8.20;11.00;;;;;;5072325;28;20251;-66
2022/03/19 09:23:15;;;;;;;2.50;2.30;;;8.50;1.00;;;;;;5072939;28;20401;-64
2022/03/19 09:25:42;;;;;;;7.47;3.00;;;8.80;1.00;;;;;;5073298;28;20679;-63
2022/03/19 09:28:07;;;;;;;7.03;3.10;;;9.00;1.00;;;;;;5073619;28;20578;-62
2022/03/19 09:30:33;;;;;;;5.20;3.20;;;9.20;1.00;;;;;;5072484;28;20409;-69
2022/03/19 09:33:00;;;;;;;3.70;3.10;;;9.50;1.00;;;;;;5073232;28;20444;-66
2022/03/19 09:35:25;;;;;;;4.00;2.80;;;9.90;1.00;;;;;;5073141;28;20939;-67
2022/03/19 09:37:51;;;;;;;3.10;2.30;;;10.00;1.00;;;;;;5073619;28;20407;-69
2022/03/19 09:40:18;;;;;;;5.07;2.40;;;10.10;1.00;;;;;;5071792;28;20573;-63
2022/03/19 09:42:52;;;;;;;8.13;2.70;;;10.30;1.00;;;;;;5072562;28;20509;-63
2022/03/19 09:45:19;;;;;;;4.47;2.70;;;10.70;1.00;;;;;;5073309;28;20865;-63
2022/03/19 09:47:45;;;;;;;3.90;2.60;;;11.20;1.00;;;;;;5073136;28;20412;-68
2022/03/19 09:50:11;;;;;;;5.13;2.27;;;11.50;1.00;;;;;;5072407;28;20463;-67
2022/03/19 09:52:37;;;;;;;4.90;2.43;;;11.70;1.00;;;;;;5073075;28;20456;-63
2022/03/19 09:55:04;;;;;;;4.83;2.10;;;11.50;1.00;;;;;;5073918;28;20207;-67
2022/03/19 09:57:30;;;;;;;8.47;3.07;;;11.50;1.00;;;;;;5077615;28;20427;-69
2022/03/19 09:59:57;;;;;;;10.27;3.60;;;11.80;1.00;;;;;;5092377;28;20413;-69
2022/03/19 10:02:23;;;;;;;4.73;2.57;;;11.70;1.00;;;;;;5088714;28;20200;-69
2022/03/19 10:04:57;;;;;;;5.40;2.60;;;11.70;99.90;;;;;;5077602;28;20427;-63
2022/03/19 10:10:09;;;;;;;2.93;2.70;;;12.00;99.90;;;;;;5075653;28;20773;-63
2022/03/19 10:12:36;;;;;;;4.90;2.73;;;12.60;99.90;;;;;;5076505;28;20440;-63
2022/03/19 10:15:09;;;;;;;4.67;2.80;;;13.20;99.90;;;;;;5075312;28;20496;-68
2022/03/19 10:17:36;;;;;;;2.30;2.17;;;13.50;99.90;;;;;;5091588;28;20427;-63
2022/03/19 10:20:12;;;;;;;3.60;2.50;;;13.70;99.90;;;;;;5091921;28;20415;-68
2022/03/19 10:22:43;;;;;;;2.67;2.47;;;13.10;99.90;;;;;;5089390;28;20855;-62
2022/03/19 10:25:11;;;;;;;3.83;2.50;;;12.40;99.90;;;;;;5072855;28;20393;-68
2022/03/19 10:27:43;;;;;;;4.23;3.27;;;12.60;99.90;;;;;;5074953;28;20454;-63
2022/03/19 10:30:19;;;;;;;6.60;3.30;;;12.50;99.90;;;;;;5092184;28;20396;-64
2022/03/19 10:32:58;;;;;;;5.27;2.60;;;12.40;99.90;;;;;;5089995;28;20515;-70
2022/03/19 10:35:34;;;;;;;2.90;2.10;;;12.60;99.90;;;;;;5072520;28;20460;-63
2022/03/19 10:38:15;;;;;;;3.83;2.50;;;12.90;99.90;;;;;;5072793;28;20435;-63
2022/03/19 10:40:44;;;;;;;3.60;2.30;;;13.20;99.90;;;;;;5071955;28;20404;-63
2022/03/19 10:43:12;;;;;;;2.20;2.10;;;12.80;99.90;;;;;;5079612;28;20466;-63
2022/03/19 10:45:52;;;;;;;2.87;2.50;;;13.20;99.90;;;;;;5095696;28;20408;-63
2022/03/19 10:48:23;;;;;;;3.37;2.63;;;13.50;99.90;;;;;;5058316;28;20522;-68
2022/03/19 10:50:51;;;;;;;2.83;2.00;;;13.80;99.90;;;;;;5089773;28;20437;-64
2022/03/19 10:53:18;;;;;;;5.37;2.30;;;14.10;99.90;;;;;;5096716;28;20423;-68
2022/03/19 10:55:44;;;;;;;3.80;2.50;;;14.00;99.90;;;;;;5082875;28;20462;-63
2022/03/19 10:58:10;;;;;;;4.03;2.60;;;14.00;99.90;;;;;;5076260;28;20411;-68
2022/03/19 11:00:37;;;;;;;4.10;3.00;;;13.90;99.90;;;;;;5076491;28;20391;-67
2022/03/19 11:03:37;;;;;;;4.60;2.90;;;14.10;99.90;;;;;;5075618;28;20427;-69
2022/03/19 11:06:05;;;;;;;3.00;2.70;;;13.20;99.90;;;;;;5043386;28;20206;-70
2022/03/19 11:08:37;;;;;;;2.93;2.63;;;13.00;99.90;;;;;;5075262;28;20410;-65
2022/03/19 11:11:29;;;;;;;4.60;3.80;;;13.10;99.90;;;;;;5075616;28;20499;-68
2022/03/19 11:13:58;;;;;;;3.50;2.90;;;12.90;99.90;;;;;;5075804;28;20473;-63
2022/03/19 11:16:26;;;;;;;2.80;2.60;;;12.20;99.90;;;;;;5076296;28;20463;-72
2022/03/19 11:18:53;;;;;;;4.07;3.37;;;12.00;99.90;;;;;;5074932;28;20400;-63
2022/03/19 11:21:19;;;;;;;3.17;2.53;;;11.50;99.90;;;;;;5075697;28;20451;-63
2022/03/19 11:23:50;;;;;;;7.20;2.80;;;11.00;99.90;;;;;;5076469;28;20400;-69
2022/03/19 11:26:26;;;;;;;2.90;2.60;;;11.10;99.90;;;;;;5075870;28;20409;-64
2022/03/19 11:28:52;;;;;;;3.67;2.70;;;11.20;99.90;;;;;;5074650;28;20404;-70
2022/03/19 11:31:25;;;;;;;2.77;2.53;;;11.30;99.90;;;;;;5057932;28;20511;-68
2022/03/19 11:33:51;;;;;;;3.63;3.00;;;11.10;99.90;;;;;;5075824;28;20498;-70
2022/03/19 11:36:17;;;;;;;2.77;2.57;;;11.10;99.90;;;;;;5075229;28;20535;-68
2022/03/19 11:38:52;;;;;;;3.43;3.13;;;11.30;99.90;;;;;;5075000;28;20501;-69
2022/03/19 11:41:18;;;;;;;3.87;2.40;;;11.20;99.90;;;;;;5075571;28;20427;-64
2022/03/19 11:43:43;;;;;;;3.40;3.10;;;11.30;99.90;;;;;;5075363;28;20920;-72
2022/03/19 11:46:12;;;;;;;4.40;3.20;;;11.30;99.90;;;;;;5075241;28;20173;-63
2022/03/19 11:48:39;;;;;;;3.90;2.70;;;10.80;99.90;;;;;;5074711;28;20248;-72
2022/03/19 11:51:38;;;;;;;5.20;3.10;;;10.90;99.90;;;;;;5075378;28;20405;-69
2022/03/19 11:54:19;;;;;;;3.17;2.97;;;10.90;99.90;;;;;;5055840;28;20784;-69
2022/03/19 11:56:45;;;;;;;3.70;3.33;;;11.30;99.90;;;;;;5075128;28;20525;-68
2022/03/19 11:59:24;;;;;;;3.00;2.80;;;11.70;99.90;;;;;;5074703;28;20420;-71
2022/03/19 12:02:01;;;;;;;2.80;2.50;;;12.40;99.90;;;;;;5075076;28;20428;-69
2022/03/19 12:04:51;;;;;;;2.70;2.50;;;12.80;99.90;;;;;;5095407;28;20388;-63
2022/03/19 12:07:50;;;;;;;3.43;2.90;;;13.40;99.90;;;;;;5095532;28;20416;-70
2022/03/19 12:10:24;;;;;;;2.90;2.70;;;14.30;99.90;;;;;;5094605;28;20396;-65
2022/03/19 12:12:50;;;;;;;2.60;2.40;;;14.70;99.90;;;;;;5094717;28;20407;-71
2022/03/19 12:15:34;;;;;;;3.73;3.33;;;14.60;99.90;;;;;;5077093;28;20459;-64
2022/03/19 12:18:37;;;;;;;2.30;2.00;;;13.50;99.90;;;;;;5095188;28;20362;-63
2022/03/19 12:21:13;;;;;;;4.27;2.90;;;13.50;99.90;;;;;;5094783;28;20843;-71
2022/03/19 12:23:51;;;;;;;3.30;2.83;;;14.20;99.90;;;;;;5094825;28;20714;-71
2022/03/19 12:26:22;;;;;;;3.23;3.03;;;13.70;99.90;;;;;;5094857;28;20412;-70
2022/03/19 12:28:58;;;;;;;3.00;2.80;;;13.60;99.90;;;;;;5094037;28;20407;-72
2022/03/19 12:31:29;;;;;;;2.87;2.30;;;14.20;99.90;;;;;;5094705;28;20502;-69
2022/03/19 12:33:55;;;;;;;3.07;2.87;;;15.50;99.90;;;;;;5094217;28;20391;-62
2022/03/19 12:36:21;;;;;;;2.43;2.33;;;16.30;99.90;;;;;;5094747;28;20430;-71
2022/03/19 12:38:52;;;;;;;3.03;2.47;;;15.70;99.90;;;;;;5094569;28;20378;-65
2022/03/19 12:41:23;;;;;;;3.03;2.83;;;15.90;99.90;;;;;;5094316;28;20189;-69
2022/03/19 12:43:50;;;;;;;3.53;3.20;;;16.50;99.90;;;;;;5094797;28;20795;-72
2022/03/19 12:46:53;;;;;;;;;;;;;;;;;;;;;
2022/03/19 12:49:19;;;;;;;3.03;2.83;;;17.10;99.90;;;;;;5094509;28;20724;-64
2022/03/19 12:51:47;;;;;;;2.90;2.70;;;17.10;99.90;;;;;;5077608;28;20538;-69
2022/03/19 12:54:31;;;;;;;2.50;2.30;;;17.00;99.90;;;;;;5095748;28;20223;-72
2022/03/19 12:57:11;;;;;;;2.57;2.37;;;16.90;99.90;;;;;;5094101;28;20407;-71
2022/03/19 12:59:37;;;;;;;2.97;2.77;;;16.50;99.90;;;;;;5074765;28;20447;-66
2022/03/19 13:02:03;;;;;;;4.20;2.73;;;15.40;99.90;;;;;;5094006;28;20416;-66
2022/03/19 13:04:31;;;;;;;2.90;2.70;;;15.90;99.90;;;;;;5092702;28;20937;-64
2022/03/19 13:06:58;;;;;;;3.60;3.30;;;16.70;99.90;;;;;;5075253;28;20583;-70
2022/03/19 13:09:41;;;;;;;7.97;4.70;;;16.90;99.90;;;;;;5093156;28;20396;-64
2022/03/19 13:12:10;;;;;;;3.03;2.73;;;17.60;99.90;;;;;;5093992;28;20420;-64
2022/03/19 13:14:36;;;;;;;3.10;2.87;;;17.60;99.90;;;;;;5093675;28;20399;-71
2022/03/19 13:17:04;;;;;;;4.90;3.33;;;17.60;99.90;;;;;;5075791;28;20412;-69
2022/03/19 13:19:37;;;;;;;3.90;2.77;;;16.30;99.90;;;;;;5092703;28;20408;-63
2022/03/19 13:22:03;;;;;;;5.20;3.17;;;16.20;99.90;;;;;;5093617;28;20920;-68